sensor_id;sensor_type;location;lat;lon;timestamp;pressure;altitude;pressure_sealevel;temperature;humidity
13954;BME280;7049;49.444;8.522;2022-12-07T00:01:58;78931.44;;;-3.47;99.18
13954;BME280;7049;49.444;8.522;2022-12-07T00:07:00;78929.34;;;-3.47;98.76
13954;BME280;7049;49.444;8.522;2022-12-07T00:12:03;78923.06;;;-3.47;97.81
13954;BME280;7049;49.444;8.522;2022-12-07T00:17:04;78927.25;;;-3.47;97.95
13954;BME280;7049;49.444;8.522;2022-12-07T00:22:07;78927.25;;;-3.47;98.28
13954;BME280;7049;49.444;8.522;2022-12-07T00:27:08;78923.06;;;-3.47;98.62
13954;BME280;7049;49.444;8.522;2022-12-07T00:32:10;78918.88;;;-3.47;98.67
13954;BME280;7049;49.444;8.522;2022-12-07T00:37:13;78912.59;;;-3.47;98.95
13954;BME280;7049;49.444;8.522;2022-12-07T00:42:14;78908.41;;;-3.47;98.66
13954;BME280;7049;49.444;8.522;2022-12-07T00:47:15;78914.69;;;-3.47;97.46
13954;BME280;7049;49.444;8.522;2022-12-07T00:52:18;78918.88;;;-3.47;97.79
13954;BME280;7049;49.444;8.522;2022-12-07T00:57:20;78916.78;;;-3.47;98.10
13954;BME280;7049;49.444;8.522;2022-12-07T01:02:21;78923.06;;;-3.47;98.73
13954;BME280;7049;49.444;8.522;2022-12-07T01:07:24;78918.88;;;-3.47;98.76
13954;BME280;7049;49.444;8.522;2022-12-07T01:12:25;78918.88;;;-3.47;98.93
13954;BME280;7049;49.444;8.522;2022-12-07T01:17:28;78927.25;;;-3.47;99.38
13954;BME280;7049;49.444;8.522;2022-12-07T01:22:31;78929.34;;;-3.47;98.35
13954;BME280;7049;49.444;8.522;2022-12-07T01:27:32;78931.44;;;-3.47;98.87
13954;BME280;7049;49.444;8.522;2022-12-07T01:32:34;78914.69;;;-3.47;98.53
13954;BME280;7049;49.444;8.522;2022-12-07T01:37:37;78925.16;;;-3.47;98.74
13954;BME280;7049;49.444;8.522;2022-12-07T01:42:39;78925.16;;;-3.47;99.36
13954;BME280;7049;49.444;8.522;2022-12-07T01:47:41;78925.16;;;-3.47;99.68
13954;BME280;7049;49.444;8.522;2022-12-07T01:52:45;78937.72;;;-3.47;99.87
13954;BME280;7049;49.444;8.522;2022-12-07T01:57:51;78935.63;;;-3.47;100.00
13954;BME280;7049;49.444;8.522;2022-12-07T02:02:57;78939.81;;;-3.47;100.00
13954;BME280;7049;49.444;8.522;2022-12-07T02:08:03;78935.63;;;-3.47;100.00
13954;BME280;7049;49.444;8.522;2022-12-07T02:13:07;78933.53;;;-3.47;99.87
13954;BME280;7049;49.444;8.522;2022-12-07T02:18:14;78933.53;;;-3.47;99.81
13954;BME280;7049;49.444;8.522;2022-12-07T02:23:40;78933.53;;;-3.47;100.00
13954;BME280;7049;49.444;8.522;2022-12-07T02:28:56;78931.44;;;-3.47;100.00
13954;BME280;7049;49.444;8.522;2022-12-07T02:34:06;78925.16;;;-3.47;99.69
13954;BME280;7049;49.444;8.522;2022-12-07T02:39:13;78912.59;;;-3.47;98.40
13954;BME280;7049;49.444;8.522;2022-12-07T02:44:20;78948.19;;;-3.47;98.13
13954;BME280;7049;49.444;8.522;2022-12-07T02:49:24;78954.47;;;-3.47;98.59
13954;BME280;7049;49.444;8.522;2022-12-07T02:54:27;78952.38;;;-3.47;98.38
13954;BME280;7049;49.444;8.522;2022-12-07T02:59:39;78956.56;;;-3.47;98.10
13954;BME280;7049;49.444;8.522;2022-12-07T03:04:54;78962.84;;;-3.47;97.81
13954;BME280;7049;49.444;8.522;2022-12-07T03:10:02;78958.66;;;-3.47;98.16
13954;BME280;7049;49.444;8.522;2022-12-07T03:15:14;78958.66;;;-3.47;98.10
13954;BME280;7049;49.444;8.522;2022-12-07T03:20:19;78956.56;;;-3.47;98.68
13954;BME280;7049;49.444;8.522;2022-12-07T03:25:22;78946.09;;;-3.47;98.94
13954;BME280;7049;49.444;8.522;2022-12-07T03:30:28;78946.09;;;-3.47;99.14
13954;BME280;7049;49.444;8.522;2022-12-07T03:35:35;78939.81;;;-3.47;99.35
13954;BME280;7049;49.444;8.522;2022-12-07T03:40:43;78933.53;;;-3.47;98.98
13954;BME280;7049;49.444;8.522;2022-12-07T03:45:55;78929.34;;;-3.47;98.00
13954;BME280;7049;49.444;8.522;2022-12-07T03:51:05;78931.44;;;-3.47;96.99
13954;BME280;7049;49.444;8.522;2022-12-07T03:56:08;78929.34;;;-3.47;96.64
13954;BME280;7049;49.444;8.522;2022-12-07T04:01:12;78927.25;;;-3.47;96.68
13954;BME280;7049;49.444;8.522;2022-12-07T04:06:13;78929.34;;;-3.47;96.90
13954;BME280;7049;49.444;8.522;2022-12-07T04:11:15;78929.34;;;-3.47;96.69
13954;BME280;7049;49.444;8.522;2022-12-07T04:16:18;78923.06;;;-3.47;96.68
13954;BME280;7049;49.444;8.522;2022-12-07T04:21:19;78916.78;;;-3.47;95.69
13954;BME280;7049;49.444;8.522;2022-12-07T04:26:21;78908.41;;;-3.47;96.20
13954;BME280;7049;49.444;8.522;2022-12-07T04:31:24;78918.88;;;-3.47;96.46
13954;BME280;7049;49.444;8.522;2022-12-07T04:36:25;78923.06;;;-3.47;96.22
13954;BME280;7049;49.444;8.522;2022-12-07T04:41:27;78923.06;;;-3.47;96.79
13954;BME280;7049;49.444;8.522;2022-12-07T04:46:31;78920.97;;;-3.47;96.90
13954;BME280;7049;49.444;8.522;2022-12-07T04:51:33;78925.16;;;-3.47;97.61
13954;BME280;7049;49.444;8.522;2022-12-07T04:56:34;78912.59;;;-3.47;98.03
13954;BME280;7049;49.444;8.522;2022-12-07T05:01:37;78912.59;;;-3.47;98.93
13954;BME280;7049;49.444;8.522;2022-12-07T05:06:39;78910.50;;;-3.47;99.88
13954;BME280;7049;49.444;8.522;2022-12-07T05:11:40;78902.16;;;-3.47;100.00
13954;BME280;7049;49.444;8.522;2022-12-07T05:16:44;78900.06;;;-3.47;100.00
13954;BME280;7049;49.444;8.522;2022-12-07T05:21:46;78893.78;;;-3.47;99.79
13954;BME280;7049;49.444;8.522;2022-12-07T05:26:49;78902.16;;;-3.47;99.36
13954;BME280;7049;49.444;8.522;2022-12-07T05:31:51;78897.97;;;-3.47;99.60
13954;BME280;7049;49.444;8.522;2022-12-07T05:36:53;78897.97;;;-3.47;99.71
13954;BME280;7049;49.444;8.522;2022-12-07T05:41:54;78891.69;;;-3.47;99.02
13954;BME280;7049;49.444;8.522;2022-12-07T05:47:16;78895.88;;;-3.47;99.27
13954;BME280;7049;49.444;8.522;2022-12-07T05:52:18;78900.06;;;-3.47;99.44
13954;BME280;7049;49.444;8.522;2022-12-07T05:57:19;78895.88;;;-3.47;99.80
13954;BME280;7049;49.444;8.522;2022-12-07T06:02:22;78895.88;;;-3.47;100.00
13954;BME280;7049;49.444;8.522;2022-12-07T06:07:23;78897.97;;;-3.47;100.00
13954;BME280;7049;49.444;8.522;2022-12-07T06:12:25;78897.97;;;-3.47;100.00
13954;BME280;7049;49.444;8.522;2022-12-07T06:17:38;78902.16;;;-3.47;100.00
13954;BME280;7049;49.444;8.522;2022-12-07T06:22:40;78906.31;;;-3.47;100.00
13954;BME280;7049;49.444;8.522;2022-12-07T06:27:42;78904.22;;;-3.47;100.00
13954;BME280;7049;49.444;8.522;2022-12-07T06:32:44;78897.97;;;-3.47;100.00
13954;BME280;7049;49.444;8.522;2022-12-07T06:37:46;78908.41;;;-3.47;100.00
13954;BME280;7049;49.444;8.522;2022-12-07T06:42:47;78910.50;;;-3.47;100.00
13954;BME280;7049;49.444;8.522;2022-12-07T06:47:50;78912.59;;;-3.47;100.00
13954;BME280;7049;49.444;8.522;2022-12-07T06:52:52;78906.31;;;-3.47;100.00
13954;BME280;7049;49.444;8.522;2022-12-07T06:57:54;78910.50;;;-3.47;100.00
13954;BME280;7049;49.444;8.522;2022-12-07T07:02:56;78912.59;;;-3.47;100.00
13954;BME280;7049;49.444;8.522;2022-12-07T07:07:58;78920.97;;;-3.47;100.00
13954;BME280;7049;49.444;8.522;2022-12-07T07:12:59;78927.25;;;-3.47;100.00
13954;BME280;7049;49.444;8.522;2022-12-07T07:18:02;78923.06;;;-3.47;100.00
13954;BME280;7049;49.444;8.522;2022-12-07T07:23:04;78927.25;;;-3.47;100.00
13954;BME280;7049;49.444;8.522;2022-12-07T07:28:06;78927.25;;;-3.47;100.00
13954;BME280;7049;49.444;8.522;2022-12-07T07:33:09;78931.44;;;-3.47;100.00
13954;BME280;7049;49.444;8.522;2022-12-07T07:38:11;78931.44;;;-3.47;100.00
13954;BME280;7049;49.444;8.522;2022-12-07T07:43:12;78929.34;;;-3.47;100.00
13954;BME280;7049;49.444;8.522;2022-12-07T07:48:15;78918.88;;;-3.47;100.00
13954;BME280;7049;49.444;8.522;2022-12-07T07:53:17;78920.97;;;-3.47;100.00
13954;BME280;7049;49.444;8.522;2022-12-07T07:58:18;78918.88;;;-3.47;100.00
13954;BME280;7049;49.444;8.522;2022-12-07T08:03:21;78918.88;;;-3.47;100.00
13954;BME280;7049;49.444;8.522;2022-12-07T08:08:22;78914.69;;;-3.47;100.00
13954;BME280;7049;49.444;8.522;2022-12-07T08:13:24;78918.88;;;-3.47;100.00
13954;BME280;7049;49.444;8.522;2022-12-07T08:18:27;78923.06;;;-3.47;100.00
13954;BME280;7049;49.444;8.522;2022-12-07T08:23:28;78925.16;;;-3.47;100.00
13954;BME280;7049;49.444;8.522;2022-12-07T08:28:30;78929.34;;;-3.47;100.00
13954;BME280;7049;49.444;8.522;2022-12-07T08:33:34;78920.97;;;-3.47;100.00
13954;BME280;7049;49.444;8.522;2022-12-07T08:38:37;78914.69;;;-3.47;100.00
13954;BME280;7049;49.444;8.522;2022-12-07T08:43:38;78914.69;;;-3.47;100.00
13954;BME280;7049;49.444;8.522;2022-12-07T08:48:46;78910.50;;;-3.47;100.00
13954;BME280;7049;49.444;8.522;2022-12-07T08:53:51;78902.16;;;-3.47;100.00
13954;BME280;7049;49.444;8.522;2022-12-07T08:58:53;78889.59;;;-3.47;100.00
13954;BME280;7049;49.444;8.522;2022-12-07T09:03:56;78881.22;;;-3.47;99.24
13954;BME280;7049;49.444;8.522;2022-12-07T09:08:59;78866.56;;;-3.47;98.88
13954;BME280;7049;49.444;8.522;2022-12-07T09:14:02;78868.66;;;-3.47;98.38
13954;BME280;7049;49.444;8.522;2022-12-07T09:19:05;78870.75;;;-3.47;98.71
13954;BME280;7049;49.444;8.522;2022-12-07T09:24:07;78872.84;;;-3.47;98.73
13954;BME280;7049;49.444;8.522;2022-12-07T09:29:09;78864.47;;;-3.47;98.08
13954;BME280;7049;49.444;8.522;2022-12-07T09:34:12;78862.38;;;-3.47;98.07
13954;BME280;7049;49.444;8.522;2022-12-07T09:39:13;78849.81;;;-3.47;97.59
13954;BME280;7049;49.444;8.522;2022-12-07T09:44:20;78847.72;;;-3.47;96.01
13954;BME280;7049;49.444;8.522;2022-12-07T09:49:25;78843.53;;;-3.47;95.12
13954;BME280;7049;49.444;8.522;2022-12-07T09:54:30;78830.97;;;-3.47;95.28
13954;BME280;7049;49.444;8.522;2022-12-07T09:59:31;78835.16;;;-3.47;95.74
13954;BME280;7049;49.444;8.522;2022-12-07T10:04:37;78824.69;;;-3.47;95.61
13954;BME280;7049;49.444;8.522;2022-12-07T10:09:39;78814.22;;;-3.47;95.23
13954;BME280;7049;49.444;8.522;2022-12-07T10:14:53;78801.69;;;-3.47;96.15
13954;BME280;7049;49.444;8.522;2022-12-07T10:20:12;78793.31;;;-3.47;95.31
13954;BME280;7049;49.444;8.522;2022-12-07T10:25:19;78789.13;;;-3.47;95.33
13954;BME280;7049;49.444;8.522;2022-12-07T10:30:20;78784.94;;;-3.47;96.15
13954;BME280;7049;49.444;8.522;2022-12-07T10:35:25;78774.47;;;-3.47;95.57
13954;BME280;7049;49.444;8.522;2022-12-07T10:40:31;78764.00;;;-3.47;95.79
13954;BME280;7049;49.444;8.522;2022-12-07T10:45:35;78740.97;;;-3.47;96.06
13954;BME280;7049;49.444;8.522;2022-12-07T10:50:55;78724.22;;;-3.47;95.52
13954;BME280;7049;49.444;8.522;2022-12-07T10:56:23;78717.94;;;-3.47;94.19
13954;BME280;7049;49.444;8.522;2022-12-07T11:01:32;78717.94;;;-3.47;94.08
13954;BME280;7049;49.444;8.522;2022-12-07T11:06:39;78713.75;;;-3.47;93.93
13954;BME280;7049;49.444;8.522;2022-12-07T11:11:48;78703.31;;;-3.47;93.96
13954;BME280;7049;49.444;8.522;2022-12-07T11:16:56;78692.84;;;-3.47;92.55
13954;BME280;7049;49.444;8.522;2022-12-07T11:22:10;78690.75;;;-3.47;91.92
13954;BME280;7049;49.444;8.522;2022-12-07T11:27:22;78684.47;;;-3.47;92.66
13954;BME280;7049;49.444;8.522;2022-12-07T11:32:40;78671.91;;;-3.47;92.38
13954;BME280;7049;49.444;8.522;2022-12-07T11:37:46;78671.91;;;-3.47;91.74
13954;BME280;7049;49.444;8.522;2022-12-07T11:42:51;78650.97;;;-3.47;90.22
13954;BME280;7049;49.444;8.522;2022-12-07T11:47:55;78648.88;;;-3.47;89.07
13954;BME280;7049;49.444;8.522;2022-12-07T11:53:03;78640.50;;;-3.47;88.39
13954;BME280;7049;49.444;8.522;2022-12-07T11:58:19;78638.41;;;-3.47;88.94
13954;BME280;7049;49.444;8.522;2022-12-07T12:03:26;78636.31;;;-3.47;88.10
13954;BME280;7049;49.444;8.522;2022-12-07T12:08:34;78625.84;;;-3.47;87.82
13954;BME280;7049;49.444;8.522;2022-12-07T12:13:56;78588.19;;;-3.47;86.40
13954;BME280;7049;49.444;8.522;2022-12-07T12:19:15;78525.41;;;-3.47;85.02
13954;BME280;7049;49.444;8.522;2022-12-07T12:24:23;78475.16;;;-3.47;84.70
13954;BME280;7049;49.444;8.522;2022-12-07T12:29:28;78466.81;;;-3.47;81.44
13954;BME280;7049;49.444;8.522;2022-12-07T12:34:38;78468.91;;;-3.47;82.26
13954;BME280;7049;49.444;8.522;2022-12-07T12:40:23;78479.34;;;-3.47;80.89
13954;BME280;7049;49.444;8.522;2022-12-07T12:45:38;78498.19;;;-3.47;81.75
13954;BME280;7049;49.444;8.522;2022-12-07T12:50:40;78514.94;;;-3.47;80.13
13954;BME280;7049;49.444;8.522;2022-12-07T12:56:17;78514.94;;;-3.47;79.72
13954;BME280;7049;49.444;8.522;2022-12-07T13:01:38;78523.31;;;-3.47;81.12
13954;BME280;7049;49.444;8.522;2022-12-07T13:06:41;78523.31;;;-3.47;79.85
13954;BME280;7049;49.444;8.522;2022-12-07T13:11:45;78531.69;;;-3.47;79.49
13954;BME280;7049;49.444;8.522;2022-12-07T13:16:47;78544.25;;;-3.47;78.13
13954;BME280;7049;49.444;8.522;2022-12-07T13:21:50;78540.06;;;-3.47;79.94
13954;BME280;7049;49.444;8.522;2022-12-07T13:26:55;78544.25;;;-3.47;80.06
13954;BME280;7049;49.444;8.522;2022-12-07T13:31:58;78537.97;;;-3.47;79.14
13954;BME280;7049;49.444;8.522;2022-12-07T13:37:01;78542.16;;;-3.47;79.89
13954;BME280;7049;49.444;8.522;2022-12-07T13:42:19;78542.16;;;-3.47;79.46
13954;BME280;7049;49.444;8.522;2022-12-07T13:47:30;78542.16;;;-3.47;79.86
13954;BME280;7049;49.444;8.522;2022-12-07T13:52:43;78533.78;;;-3.47;80.90
13954;BME280;7049;49.444;8.522;2022-12-07T13:57:49;78529.59;;;-3.47;80.17
13954;BME280;7049;49.444;8.522;2022-12-07T14:02:56;78533.78;;;-3.47;81.22
13954;BME280;7049;49.444;8.522;2022-12-07T14:08:01;78525.41;;;-3.47;80.21
13954;BME280;7049;49.444;8.522;2022-12-07T14:13:26;78542.16;;;-3.47;81.60
13954;BME280;7049;49.444;8.522;2022-12-07T14:18:30;78537.97;;;-3.47;81.43
13954;BME280;7049;49.444;8.522;2022-12-07T14:23:38;78550.50;;;-3.47;83.09
13954;BME280;7049;49.444;8.522;2022-12-07T14:28:43;78554.69;;;-3.47;82.56
13954;BME280;7049;49.444;8.522;2022-12-07T14:33:44;78560.97;;;-3.47;82.41
13954;BME280;7049;49.444;8.522;2022-12-07T14:38:46;78563.06;;;-3.47;82.77
13954;BME280;7049;49.444;8.522;2022-12-07T14:43:48;78563.06;;;-3.47;85.43
13954;BME280;7049;49.444;8.522;2022-12-07T14:48:50;78563.06;;;-3.47;86.73
13954;BME280;7049;49.444;8.522;2022-12-07T14:53:51;78573.53;;;-3.47;84.50
13954;BME280;7049;49.444;8.522;2022-12-07T14:58:55;78571.44;;;-3.47;84.99
13954;BME280;7049;49.444;8.522;2022-12-07T15:03:56;78567.25;;;-3.47;84.32
13954;BME280;7049;49.444;8.522;2022-12-07T15:08:58;78573.53;;;-3.47;84.93
13954;BME280;7049;49.444;8.522;2022-12-07T15:14:01;78567.25;;;-3.47;84.24
13954;BME280;7049;49.444;8.522;2022-12-07T15:19:12;78571.44;;;-3.47;84.96
13954;BME280;7049;49.444;8.522;2022-12-07T15:24:14;78581.91;;;-3.47;83.78
13954;BME280;7049;49.444;8.522;2022-12-07T15:29:17;78567.25;;;-3.47;83.21
13954;BME280;7049;49.444;8.522;2022-12-07T15:34:19;78569.34;;;-3.47;83.90
13954;BME280;7049;49.444;8.522;2022-12-07T15:39:21;78571.44;;;-3.47;83.76
13954;BME280;7049;49.444;8.522;2022-12-07T15:44:24;78575.63;;;-3.47;83.66
13954;BME280;7049;49.444;8.522;2022-12-07T15:49:43;78569.34;;;-3.47;83.77
13954;BME280;7049;49.444;8.522;2022-12-07T15:54:45;78571.44;;;-3.47;83.78
13954;BME280;7049;49.444;8.522;2022-12-07T15:59:48;78571.44;;;-3.47;83.97
13954;BME280;7049;49.444;8.522;2022-12-07T16:04:51;78577.72;;;-3.47;84.72
13954;BME280;7049;49.444;8.522;2022-12-07T16:09:53;78575.63;;;-3.47;83.76
13954;BME280;7049;49.444;8.522;2022-12-07T16:14:55;78575.63;;;-3.47;83.42
13954;BME280;7049;49.444;8.522;2022-12-07T16:19:57;78567.25;;;-3.47;83.39
13954;BME280;7049;49.444;8.522;2022-12-07T16:24:58;78565.16;;;-3.47;83.93
13954;BME280;7049;49.444;8.522;2022-12-07T16:30:02;78579.81;;;-3.47;82.83
13954;BME280;7049;49.444;8.522;2022-12-07T16:35:04;78588.19;;;-3.47;83.22
13954;BME280;7049;49.444;8.522;2022-12-07T16:40:07;78581.91;;;-3.47;82.99
13954;BME280;7049;49.444;8.522;2022-12-07T16:45:10;78581.91;;;-3.47;82.69
13954;BME280;7049;49.444;8.522;2022-12-07T16:50:13;78592.38;;;-3.47;83.77
13954;BME280;7049;49.444;8.522;2022-12-07T16:55:15;78586.09;;;-3.47;83.60
13954;BME280;7049;49.444;8.522;2022-12-07T17:00:19;78596.56;;;-3.47;84.30
13954;BME280;7049;49.444;8.522;2022-12-07T17:05:21;78613.31;;;-3.47;85.20
13954;BME280;7049;49.444;8.522;2022-12-07T17:10:24;78609.13;;;-3.47;84.78
13954;BME280;7049;49.444;8.522;2022-12-07T17:15:27;78607.03;;;-3.47;84.25
13954;BME280;7049;49.444;8.522;2022-12-07T17:20:29;78602.84;;;-3.47;83.75
13954;BME280;7049;49.444;8.522;2022-12-07T17:25:30;78609.13;;;-3.47;84.88
13954;BME280;7049;49.444;8.522;2022-12-07T17:30:33;78617.50;;;-3.47;85.42
13954;BME280;7049;49.444;8.522;2022-12-07T17:35:35;78619.59;;;-3.47;85.61
13954;BME280;7049;49.444;8.522;2022-12-07T17:40:36;78615.41;;;-3.47;85.85
13954;BME280;7049;49.444;8.522;2022-12-07T17:45:39;78604.94;;;-3.47;85.98
13954;BME280;7049;49.444;8.522;2022-12-07T17:50:40;78607.03;;;-3.47;85.86
13954;BME280;7049;49.444;8.522;2022-12-07T17:56:00;78617.50;;;-3.47;86.69
13954;BME280;7049;49.444;8.522;2022-12-07T18:01:07;78619.59;;;-3.47;87.30
13954;BME280;7049;49.444;8.522;2022-12-07T18:06:09;78615.41;;;-3.47;87.46
13954;BME280;7049;49.444;8.522;2022-12-07T18:11:10;78613.31;;;-3.47;87.52
13954;BME280;7049;49.444;8.522;2022-12-07T18:16:15;78630.03;;;-3.47;88.21
13954;BME280;7049;49.444;8.522;2022-12-07T18:21:20;78621.69;;;-3.47;88.17
13954;BME280;7049;49.444;8.522;2022-12-07T18:26:22;78625.84;;;-3.47;88.47
13954;BME280;7049;49.444;8.522;2022-12-07T18:31:26;78621.69;;;-3.47;88.91
13954;BME280;7049;49.444;8.522;2022-12-07T18:36:28;78625.84;;;-3.47;89.34
13954;BME280;7049;49.444;8.522;2022-12-07T18:41:29;78632.13;;;-3.47;89.95
13954;BME280;7049;49.444;8.522;2022-12-07T18:46:33;78630.03;;;-3.47;89.93
13954;BME280;7049;49.444;8.522;2022-12-07T18:51:35;78638.41;;;-3.47;89.52
13954;BME280;7049;49.444;8.522;2022-12-07T18:56:36;78644.69;;;-3.47;89.76
13954;BME280;7049;49.444;8.522;2022-12-07T19:01:41;78642.59;;;-3.47;89.79
13954;BME280;7049;49.444;8.522;2022-12-07T19:06:44;78632.13;;;-3.47;90.27
13954;BME280;7049;49.444;8.522;2022-12-07T19:11:46;78638.41;;;-3.47;90.63
13954;BME280;7049;49.444;8.522;2022-12-07T19:16:54;78640.50;;;-3.47;90.68
13954;BME280;7049;49.444;8.522;2022-12-07T19:21:55;78630.03;;;-3.47;90.73
13954;BME280;7049;49.444;8.522;2022-12-07T19:26:57;78644.69;;;-3.47;90.44
13954;BME280;7049;49.444;8.522;2022-12-07T19:32:02;78638.41;;;-3.47;90.38
13954;BME280;7049;49.444;8.522;2022-12-07T19:37:04;78642.59;;;-3.47;90.90
13954;BME280;7049;49.444;8.522;2022-12-07T19:42:06;78650.97;;;-3.47;90.95
13954;BME280;7049;49.444;8.522;2022-12-07T19:47:09;78655.16;;;-3.47;91.04
13954;BME280;7049;49.444;8.522;2022-12-07T19:52:12;78650.97;;;-3.47;90.62
13954;BME280;7049;49.444;8.522;2022-12-07T19:57:14;78646.78;;;-3.47;90.71
13954;BME280;7049;49.444;8.522;2022-12-07T20:02:18;78650.97;;;-3.47;90.85
13954;BME280;7049;49.444;8.522;2022-12-07T20:07:19;78650.97;;;-3.47;90.58
13954;BME280;7049;49.444;8.522;2022-12-07T20:12:21;78650.97;;;-3.47;91.04
13954;BME280;7049;49.444;8.522;2022-12-07T20:17:41;78650.97;;;-3.47;91.39
13954;BME280;7049;49.444;8.522;2022-12-07T20:22:43;78653.06;;;-3.47;91.88
13954;BME280;7049;49.444;8.522;2022-12-07T20:27:44;78648.88;;;-3.47;92.09
13954;BME280;7049;49.444;8.522;2022-12-07T20:32:48;78655.16;;;-3.47;91.93
13954;BME280;7049;49.444;8.522;2022-12-07T20:37:49;78657.25;;;-3.47;91.90
13954;BME280;7049;49.444;8.522;2022-12-07T20:42:51;78657.25;;;-3.47;92.18
13954;BME280;7049;49.444;8.522;2022-12-07T20:47:53;78661.44;;;-3.47;91.94
13954;BME280;7049;49.444;8.522;2022-12-07T20:52:55;78659.34;;;-3.47;92.01
13954;BME280;7049;49.444;8.522;2022-12-07T20:57:56;78659.34;;;-3.47;92.16
13954;BME280;7049;49.444;8.522;2022-12-07T21:02:59;78659.34;;;-3.47;92.03
13954;BME280;7049;49.444;8.522;2022-12-07T21:08:01;78650.97;;;-3.47;92.26
13954;BME280;7049;49.444;8.522;2022-12-07T21:13:02;78650.97;;;-3.47;92.25
13954;BME280;7049;49.444;8.522;2022-12-07T21:18:05;78642.59;;;-3.47;91.86
13954;BME280;7049;49.444;8.522;2022-12-07T21:23:06;78640.50;;;-3.47;91.23
13954;BME280;7049;49.444;8.522;2022-12-07T21:28:08;78640.50;;;-3.47;91.27
13954;BME280;7049;49.444;8.522;2022-12-07T21:33:11;78648.88;;;-3.47;91.76
13954;BME280;7049;49.444;8.522;2022-12-07T21:38:12;78650.97;;;-3.47;92.36
13954;BME280;7049;49.444;8.522;2022-12-07T21:43:14;78648.88;;;-3.47;92.59
13954;BME280;7049;49.444;8.522;2022-12-07T21:48:17;78650.97;;;-3.47;92.10
13954;BME280;7049;49.444;8.522;2022-12-07T21:53:18;78642.59;;;-3.47;91.46
13954;BME280;7049;49.444;8.522;2022-12-07T21:58:20;78644.69;;;-3.47;91.53
13954;BME280;7049;49.444;8.522;2022-12-07T22:03:23;78644.69;;;-3.47;91.89
13954;BME280;7049;49.444;8.522;2022-12-07T22:08:24;78640.50;;;-3.47;91.97
13954;BME280;7049;49.444;8.522;2022-12-07T22:13:25;78630.03;;;-3.47;91.85
13954;BME280;7049;49.444;8.522;2022-12-07T22:18:49;78638.41;;;-3.47;91.50
13954;BME280;7049;49.444;8.522;2022-12-07T22:23:51;78636.31;;;-3.47;91.92
13954;BME280;7049;49.444;8.522;2022-12-07T22:28:52;78634.22;;;-3.47;91.74
13954;BME280;7049;49.444;8.522;2022-12-07T22:33:55;78632.13;;;-3.47;92.14
13954;BME280;7049;49.444;8.522;2022-12-07T22:38:56;78630.03;;;-3.47;92.25
13954;BME280;7049;49.444;8.522;2022-12-07T22:43:59;78630.03;;;-3.47;92.43
13954;BME280;7049;49.444;8.522;2022-12-07T22:49:02;78638.41;;;-3.47;93.13
13954;BME280;7049;49.444;8.522;2022-12-07T22:54:06;78634.22;;;-3.47;92.60
13954;BME280;7049;49.444;8.522;2022-12-07T22:59:08;78634.22;;;-3.47;92.82
13954;BME280;7049;49.444;8.522;2022-12-07T23:04:10;78640.50;;;-3.47;93.35
13954;BME280;7049;49.444;8.522;2022-12-07T23:09:12;78625.84;;;-3.47;92.90
13954;BME280;7049;49.444;8.522;2022-12-07T23:14:15;78613.31;;;-3.47;92.71
13954;BME280;7049;49.444;8.522;2022-12-07T23:19:18;78615.41;;;-3.47;93.08
13954;BME280;7049;49.444;8.522;2022-12-07T23:24:20;78615.41;;;-3.47;92.69
13954;BME280;7049;49.444;8.522;2022-12-07T23:29:21;78609.13;;;-3.47;92.53
13954;BME280;7049;49.444;8.522;2022-12-07T23:34:24;78604.94;;;-3.47;92.44
13954;BME280;7049;49.444;8.522;2022-12-07T23:39:26;78613.31;;;-3.47;92.17
13954;BME280;7049;49.444;8.522;2022-12-07T23:44:27;78617.50;;;-3.47;92.38
13954;BME280;7049;49.444;8.522;2022-12-07T23:49:30;78609.13;;;-3.47;92.25
13954;BME280;7049;49.444;8.522;2022-12-07T23:54:31;78611.22;;;-3.47;92.63
13954;BME280;7049;49.444;8.522;2022-12-07T23:59:33;78602.84;;;-3.47;92.60
